地図

経路データ

SID SEASON NUMBER BASIN SUBBASIN NAME ISO_TIME NATURE LAT LON WMO_WIND WMO_PRES WMO_AGENCY TRACK_TYPE DIST2LAND LANDFALL IFLAG USA_AGENCY USA_ATCF_ID USA_LAT USA_LON USA_RECORD USA_STATUS USA_WIND USA_PRES USA_SSHS USA_R34_NE USA_R34_SE USA_R34_SW USA_R34_NW USA_R50_NE USA_R50_SE USA_R50_SW USA_R50_NW USA_R64_NE USA_R64_SE USA_R64_SW USA_R64_NW USA_POCI USA_ROCI USA_RMW USA_EYE TOKYO_LAT TOKYO_LON TOKYO_GRADE TOKYO_WIND TOKYO_PRES TOKYO_R50_DIR TOKYO_R50_LONG TOKYO_R50_SHORT TOKYO_R30_DIR TOKYO_R30_LONG TOKYO_R30_SHORT TOKYO_LAND CMA_LAT CMA_LON CMA_CAT CMA_WIND CMA_PRES HKO_LAT HKO_LON HKO_CAT HKO_WIND HKO_PRES NEWDELHI_LAT NEWDELHI_LON NEWDELHI_GRADE NEWDELHI_WIND NEWDELHI_PRES NEWDELHI_CI NEWDELHI_DP NEWDELHI_POCI REUNION_LAT REUNION_LON REUNION_TYPE REUNION_WIND REUNION_PRES REUNION_TNUM REUNION_CI REUNION_RMW REUNION_R34_NE REUNION_R34_SE REUNION_R34_SW REUNION_R34_NW REUNION_R50_NE REUNION_R50_SE REUNION_R50_SW REUNION_R50_NW REUNION_R64_NE REUNION_R64_SE REUNION_R64_SW REUNION_R64_NW BOM_LAT BOM_LON BOM_TYPE BOM_WIND BOM_PRES BOM_TNUM BOM_CI BOM_RMW BOM_R34_NE BOM_R34_SE BOM_R34_SW BOM_R34_NW BOM_R50_NE BOM_R50_SE BOM_R50_SW BOM_R50_NW BOM_R64_NE BOM_R64_SE BOM_R64_SW BOM_R64_NW BOM_ROCI BOM_POCI BOM_EYE BOM_POS_METHOD BOM_PRES_METHOD NADI_LAT NADI_LON NADI_CAT NADI_WIND NADI_PRES WELLINGTON_LAT WELLINGTON_LON WELLINGTON_WIND WELLINGTON_PRES DS824_LAT DS824_LON DS824_STAGE DS824_WIND DS824_PRES TD9636_LAT TD9636_LON TD9636_STAGE TD9636_WIND TD9636_PRES TD9635_LAT TD9635_LON TD9635_WIND TD9635_PRES TD9635_ROCI NEUMANN_LAT NEUMANN_LON NEUMANN_CLASS NEUMANN_WIND NEUMANN_PRES MLC_LAT MLC_LON MLC_CLASS MLC_WIND MLC_PRES USA_GUST BOM_GUST BOM_GUST_PER REUNION_GUST REUNION_GUST_PER USA_SEAHGT USA_SEARAD_NE USA_SEARAD_SE USA_SEARAD_SW USA_SEARAD_NW STORM_SPEED STORM_DIR
1928247N16127 1928 50 WP MM NOT_NAMED 1928-09-02 22:00:00 NR 15.9000 127.400 main 392 390 __________O___ -1 15.9000 127.400 7 6 313
1928247N16127 1928 50 WP MM NOT_NAMED 1928-09-03 00:00:00 NR 16.0284 127.256 main 390 379 __________P___ -1 16.0284 127.256 7 6 313
1928247N16127 1928 50 WP MM NOT_NAMED 1928-09-03 03:00:00 NR 16.2289 127.031 main 379 379 __________P___ -1 16.2289 127.031 7 6 313
1928247N16127 1928 50 WP MM NOT_NAMED 1928-09-03 06:00:00 NR 16.4504 126.785 main 387 380 __________P___ -1 16.4504 126.785 7 7 313
1928247N16127 1928 50 WP MM NOT_NAMED 1928-09-03 09:00:00 NR 16.7054 126.504 main 383 383 __________P___ -1 16.7054 126.504 7 8 313
1928247N16127 1928 50 WP MM NOT_NAMED 1928-09-03 10:00:00 NR 16.8000 126.400 main 385 379 __________O___ -1 16.8000 126.400 7 9 314
1928247N16127 1928 50 WP MM NOT_NAMED 1928-09-03 12:00:00 NR 17.0045 126.177 main 392 352 __________P___ -1 17.0045 126.177 7 9 314
1928247N16127 1928 50 WP MM NOT_NAMED 1928-09-03 15:00:00 NR 17.3367 125.824 main 352 325 __________P___ -1 17.3367 125.824 7 10 315
1928247N16127 1928 50 WP MM NOT_NAMED 1928-09-03 18:00:00 NR 17.6770 125.479 main 327 303 __________P___ -1 17.6770 125.479 7 9 317
1928247N16127 1928 50 WP MM NOT_NAMED 1928-09-03 21:00:00 NR 18.0003 125.182 main 306 296 __________P___ -1 18.0003 125.182 7 8 320
1928247N16127 1928 50 WP MM NOT_NAMED 1928-09-03 22:00:00 NR 18.1000 125.100 main 296 285 __________O___ -1 18.1000 125.100 3 7 325
1928247N16127 1928 50 WP MM NOT_NAMED 1928-09-04 00:00:00 NR 18.2700 124.979 main 285 274 __________P___ -1 18.2700 124.979 3 6 330
1928247N16127 1928 50 WP MM NOT_NAMED 1928-09-04 03:00:00 NR 18.4998 124.854 main 274 263 __________P___ -1 18.4998 124.854 3 5 336
1928247N16127 1928 50 WP MM NOT_NAMED 1928-09-04 06:00:00 NR 18.7135 124.776 main 265 256 __________P___ -1 18.7135 124.776 3 4 343
1928247N16127 1928 50 WP MM NOT_NAMED 1928-09-04 09:00:00 NR 18.9265 124.719 main 258 258 __________P___ -1 18.9265 124.719 3 4 348
1928247N16127 1928 50 WP MM NOT_NAMED 1928-09-04 10:00:00 NR 19.0000 124.700 main 261 258 __________O___ -1 19.0000 124.700 4 5 345
1928247N16127 1928 50 WP MM NOT_NAMED 1928-09-04 12:00:00 NR 19.1714 124.647 main 258 258 __________P___ -1 19.1714 124.647 4 5 345
1928247N16127 1928 50 WP MM NOT_NAMED 1928-09-04 15:00:00 NR 19.4351 124.574 main 266 262 __________P___ -1 19.4351 124.574 4 5 345
1928247N16127 1928 50 WP MM NOT_NAMED 1928-09-04 18:00:00 NR 19.6928 124.502 main 273 273 __________P___ -1 19.6928 124.502 4 5 344
1928247N16127 1928 50 WP MM NOT_NAMED 1928-09-04 21:00:00 NR 19.9288 124.427 main 277 277 __________P___ -1 19.9288 124.427 4 5 343
1928247N16127 1928 50 WP MM NOT_NAMED 1928-09-04 22:00:00 NR 20.0000 124.400 main 284 283 __________O___ -1 20.0000 124.400 4 4 338
1928247N16127 1928 50 WP MM NOT_NAMED 1928-09-05 00:00:00 NR 20.1228 124.344 main 283 283 __________P___ -1 20.1228 124.344 4 4 334
1928247N16127 1928 50 WP MM NOT_NAMED 1928-09-05 03:00:00 NR 20.2818 124.254 main 298 291 __________P___ -1 20.2818 124.254 4 3 329
1928247N16127 1928 50 WP MM NOT_NAMED 1928-09-05 06:00:00 NR 20.4217 124.154 main 299 292 __________P___ -1 20.4217 124.154 4 3 324
1928247N16127 1928 50 WP MM NOT_NAMED 1928-09-05 09:00:00 NR 20.5549 124.041 main 303 303 __________P___ -1 20.5549 124.041 4 3 322
1928247N16127 1928 50 WP MM NOT_NAMED 1928-09-05 10:00:00 NR 20.6000 124.000 main 303 303 __________O___ -1 20.6000 124.000 4 3 319
1928247N16127 1928 50 WP MM NOT_NAMED 1928-09-05 12:00:00 NR 20.6842 123.924 main 307 307 __________P___ -1 20.6842 123.924 4 3 318
1928247N16127 1928 50 WP MM NOT_NAMED 1928-09-05 15:00:00 NR 20.8101 123.798 main 311 296 __________P___ -1 20.8101 123.798 4 4 316
1928247N16127 1928 50 WP MM NOT_NAMED 1928-09-05 18:00:00 NR 20.9524 123.650 main 296 283 __________P___ -1 20.9524 123.650 4 4 316
1928247N16127 1928 50 WP MM NOT_NAMED 1928-09-05 21:00:00 NR 21.1298 123.469 main 283 270 __________P___ -1 21.1298 123.469 4 5 317
1928247N16127 1928 50 WP MM NOT_NAMED 1928-09-05 22:00:00 NR 21.2000 123.400 main 270 244 __________O___ -1 21.2000 123.400 4 6 316
1928247N16127 1928 50 WP MM NOT_NAMED 1928-09-06 00:00:00 NR 21.3554 123.238 main 244 219 __________P___ -1 21.3554 123.238 4 7 316
1928247N16127 1928 50 WP MM NOT_NAMED 1928-09-06 03:00:00 NR 21.6261 122.962 main 219 185 __________P___ -1 21.6261 122.962 4 8 318
1928247N16127 1928 50 WP MM NOT_NAMED 1928-09-06 06:00:00 NR 21.9361 122.670 main 185 136 __________P___ -1 21.9361 122.670 4 8 321
1928247N16127 1928 50 WP MM NOT_NAMED 1928-09-06 09:00:00 NR 22.2793 122.388 main 136 120 __________P___ -1 22.2793 122.388 4 9 324
1928247N16127 1928 50 WP MM NOT_NAMED 1928-09-06 10:00:00 NR 22.4000 122.300 main 120 93 __________O___ -1 22.4000 122.300 4 9 331
1928247N16127 1928 50 WP MM NOT_NAMED 1928-09-06 12:00:00 NR 22.6540 122.165 main 93 61 __________P___ -1 22.6540 122.165 4 9 336
1928247N16127 1928 50 WP MM NOT_NAMED 1928-09-06 15:00:00 NR 23.0606 121.982 main 61 37 __________P___ -1 23.0606 121.982 4 9 338
1928247N16127 1928 50 WP MM NOT_NAMED 1928-09-06 18:00:00 NR 23.4759 121.797 main 37 10 __________P___ -1 23.4759 121.797 4 9 336
1928247N16127 1928 50 WP MM NOT_NAMED 1928-09-06 21:00:00 NR 23.8749 121.583 main 10 0 __________P___ -1 23.8749 121.583 4 9 333
1928247N16127 1928 50 WP MM NOT_NAMED 1928-09-06 22:00:00 NR 24.0000 121.500 main 0 0 __________O___ -1 24.0000 121.500 4 9 325
1928247N16127 1928 50 WP MM NOT_NAMED 1928-09-07 00:00:00 NR 24.2306 121.314 main 0 0 __________P___ -1 24.2306 121.314 4 9 320
1928247N16127 1928 50 WP MM NOT_NAMED 1928-09-07 03:00:00 NR 24.5513 120.997 main 0 0 __________P___ -1 24.5513 120.997 4 9 315
1928247N16127 1928 50 WP MM NOT_NAMED 1928-09-07 06:00:00 NR 24.8450 120.638 main 24 35 __________P___ -1 24.8450 120.638 4 9 309
1928247N16127 1928 50 WP MM NOT_NAMED 1928-09-07 09:00:00 NR 25.1148 120.241 main 60 45 __________P___ -1 25.1148 120.241 4 9 306
1928247N16127 1928 50 WP MM NOT_NAMED 1928-09-07 10:00:00 NR 25.2000 120.100 main 45 10 __________O___ -1 25.2000 120.100 4 9 302
1928247N16127 1928 50 WP MM NOT_NAMED 1928-09-07 12:00:00 NR 25.3641 119.808 main 10 0 __________P___ -1 25.3641 119.808 4 9 300
1928247N16127 1928 50 WP MM NOT_NAMED 1928-09-07 15:00:00 NR 25.5968 119.345 main 0 0 __________P___ -1 25.5968 119.345 4 10 298
1928247N16127 1928 50 WP MM NOT_NAMED 1928-09-07 18:00:00 NR 25.8173 118.862 main 0 0 __________P___ -1 25.8173 118.862 4 10 296
1928247N16127 1928 50 WP MM NOT_NAMED 1928-09-07 21:00:00 NR 26.0301 118.367 main 0 0 __________P___ -1 26.0301 118.367 4 10 295
1928247N16127 1928 50 WP MM NOT_NAMED 1928-09-07 22:00:00 NR 26.1000 118.200 main 0 __________O___ -1 26.1000 118.200 2 10 295

デジタル台風データ・検索

IBTrACS Databaseについて

本データベースは、米国NOAAが公開する1842年以降の世界の熱帯低気圧のベストトラックデータアーカイブInternational Best Track Archive for Climate Stewardship (IBTrACS)を、ウェブで閲覧しやすい形式に変換したものです。

最終更新日:2021-10-08